sensor_id;sensor_type;location;lat;lon;timestamp;temperature;humidity
20803;DHT22;10562;-33.856;151.182;2022-12-20T00:00:17;22.80;99.90
20803;DHT22;10562;-33.856;151.182;2022-12-20T00:02:48;22.70;99.90
20803;DHT22;10562;-33.856;151.182;2022-12-20T00:05:19;22.50;99.90
20803;DHT22;10562;-33.856;151.182;2022-12-20T00:07:50;22.70;99.90
20803;DHT22;10562;-33.856;151.182;2022-12-20T00:10:21;22.70;99.90
20803;DHT22;10562;-33.856;151.182;2022-12-20T00:12:53;22.70;99.90
20803;DHT22;10562;-33.856;151.182;2022-12-20T00:15:24;23.00;99.90
20803;DHT22;10562;-33.856;151.182;2022-12-20T00:17:55;23.30;99.90
20803;DHT22;10562;-33.856;151.182;2022-12-20T00:20:27;23.50;99.90
20803;DHT22;10562;-33.856;151.182;2022-12-20T00:22:58;23.80;99.90
20803;DHT22;10562;-33.856;151.182;2022-12-20T00:25:29;23.80;99.90
20803;DHT22;10562;-33.856;151.182;2022-12-20T00:28:02;23.70;99.90
20803;DHT22;10562;-33.856;151.182;2022-12-20T00:30:34;23.80;99.90
20803;DHT22;10562;-33.856;151.182;2022-12-20T00:33:05;23.90;99.90
20803;DHT22;10562;-33.856;151.182;2022-12-20T00:35:40;24.20;99.90
20803;DHT22;10562;-33.856;151.182;2022-12-20T00:38:11;24.00;99.90
20803;DHT22;10562;-33.856;151.182;2022-12-20T00:40:42;23.90;99.90
20803;DHT22;10562;-33.856;151.182;2022-12-20T00:43:15;23.50;99.90
20803;DHT22;10562;-33.856;151.182;2022-12-20T00:45:48;23.30;99.90
20803;DHT22;10562;-33.856;151.182;2022-12-20T00:48:19;23.10;99.90
20803;DHT22;10562;-33.856;151.182;2022-12-20T00:50:50;22.80;99.90
20803;DHT22;10562;-33.856;151.182;2022-12-20T00:53:21;22.70;99.90
20803;DHT22;10562;-33.856;151.182;2022-12-20T00:55:52;22.40;99.90
20803;DHT22;10562;-33.856;151.182;2022-12-20T00:58:25;22.10;99.90
20803;DHT22;10562;-33.856;151.182;2022-12-20T01:00:56;22.10;99.90
20803;DHT22;10562;-33.856;151.182;2022-12-20T01:03:27;22.10;99.90
20803;DHT22;10562;-33.856;151.182;2022-12-20T01:05:59;21.90;99.90
20803;DHT22;10562;-33.856;151.182;2022-12-20T01:08:31;22.00;99.90
20803;DHT22;10562;-33.856;151.182;2022-12-20T01:11:04;22.10;99.90
20803;DHT22;10562;-33.856;151.182;2022-12-20T01:13:39;22.10;99.90
20803;DHT22;10562;-33.856;151.182;2022-12-20T01:16:12;22.10;99.90
20803;DHT22;10562;-33.856;151.182;2022-12-20T01:18:43;22.00;99.90
20803;DHT22;10562;-33.856;151.182;2022-12-20T01:21:15;22.00;99.90
20803;DHT22;10562;-33.856;151.182;2022-12-20T01:23:47;22.20;99.90
20803;DHT22;10562;-33.856;151.182;2022-12-20T01:26:19;22.20;99.90
20803;DHT22;10562;-33.856;151.182;2022-12-20T01:28:54;22.30;99.90
20803;DHT22;10562;-33.856;151.182;2022-12-20T01:31:26;22.50;99.90
20803;DHT22;10562;-33.856;151.182;2022-12-20T01:33:57;22.50;99.90
20803;DHT22;10562;-33.856;151.182;2022-12-20T01:36:29;22.80;99.90
20803;DHT22;10562;-33.856;151.182;2022-12-20T01:39:02;23.20;99.90
20803;DHT22;10562;-33.856;151.182;2022-12-20T01:41:36;23.50;99.90
20803;DHT22;10562;-33.856;151.182;2022-12-20T01:47:12;23.90;99.90
20803;DHT22;10562;-33.856;151.182;2022-12-20T01:49:45;24.40;99.90
20803;DHT22;10562;-33.856;151.182;2022-12-20T01:52:19;24.90;99.90
20803;DHT22;10562;-33.856;151.182;2022-12-20T01:54:53;25.00;99.90
20803;DHT22;10562;-33.856;151.182;2022-12-20T01:57:28;25.00;99.90
20803;DHT22;10562;-33.856;151.182;2022-12-20T02:00:01;24.90;99.90
20803;DHT22;10562;-33.856;151.182;2022-12-20T02:02:35;24.70;99.90
20803;DHT22;10562;-33.856;151.182;2022-12-20T02:05:07;24.80;99.90
20803;DHT22;10562;-33.856;151.182;2022-12-20T02:07:39;24.90;99.90
20803;DHT22;10562;-33.856;151.182;2022-12-20T02:10:12;24.70;99.90
20803;DHT22;10562;-33.856;151.182;2022-12-20T02:12:43;24.90;99.90
20803;DHT22;10562;-33.856;151.182;2022-12-20T02:15:31;24.60;99.90
20803;DHT22;10562;-33.856;151.182;2022-12-20T02:18:16;24.30;99.90
20803;DHT22;10562;-33.856;151.182;2022-12-20T02:21:06;24.50;99.90
20803;DHT22;10562;-33.856;151.182;2022-12-20T02:27:25;24.50;99.90
20803;DHT22;10562;-33.856;151.182;2022-12-20T02:30:07;24.70;99.90
20803;DHT22;10562;-33.856;151.182;2022-12-20T02:32:43;24.80;99.90
20803;DHT22;10562;-33.856;151.182;2022-12-20T02:35:19;24.90;99.90
20803;DHT22;10562;-33.856;151.182;2022-12-20T02:37:50;25.10;99.90
20803;DHT22;10562;-33.856;151.182;2022-12-20T02:40:24;25.30;99.90
20803;DHT22;10562;-33.856;151.182;2022-12-20T02:42:58;25.40;99.90
20803;DHT22;10562;-33.856;151.182;2022-12-20T02:45:33;25.10;99.90
20803;DHT22;10562;-33.856;151.182;2022-12-20T02:48:05;25.10;99.90
20803;DHT22;10562;-33.856;151.182;2022-12-20T02:50:38;25.50;99.90
20803;DHT22;10562;-33.856;151.182;2022-12-20T02:53:10;25.70;99.90
20803;DHT22;10562;-33.856;151.182;2022-12-20T02:55:45;26.00;99.90
20803;DHT22;10562;-33.856;151.182;2022-12-20T02:58:22;26.00;99.90
20803;DHT22;10562;-33.856;151.182;2022-12-20T03:01:00;26.50;99.90
20803;DHT22;10562;-33.856;151.182;2022-12-20T03:03:33;26.70;99.90
20803;DHT22;10562;-33.856;151.182;2022-12-20T03:06:04;26.80;99.90
20803;DHT22;10562;-33.856;151.182;2022-12-20T03:08:35;26.80;99.90
20803;DHT22;10562;-33.856;151.182;2022-12-20T03:11:06;27.10;99.90
20803;DHT22;10562;-33.856;151.182;2022-12-20T03:13:37;27.60;99.90
20803;DHT22;10562;-33.856;151.182;2022-12-20T03:16:10;27.60;99.90
20803;DHT22;10562;-33.856;151.182;2022-12-20T03:18:41;27.70;99.90
20803;DHT22;10562;-33.856;151.182;2022-12-20T03:21:13;27.40;99.90
20803;DHT22;10562;-33.856;151.182;2022-12-20T03:23:43;27.70;99.90
20803;DHT22;10562;-33.856;151.182;2022-12-20T03:26:14;27.60;99.90
20803;DHT22;10562;-33.856;151.182;2022-12-20T03:28:45;27.50;99.90
20803;DHT22;10562;-33.856;151.182;2022-12-20T03:31:18;27.00;99.90
20803;DHT22;10562;-33.856;151.182;2022-12-20T03:33:49;26.80;99.90
20803;DHT22;10562;-33.856;151.182;2022-12-20T03:36:20;26.30;99.90
20803;DHT22;10562;-33.856;151.182;2022-12-20T03:38:51;26.00;99.90
20803;DHT22;10562;-33.856;151.182;2022-12-20T03:41:23;26.10;99.90
20803;DHT22;10562;-33.856;151.182;2022-12-20T03:43:54;26.50;99.90
20803;DHT22;10562;-33.856;151.182;2022-12-20T03:46:27;26.90;99.90
20803;DHT22;10562;-33.856;151.182;2022-12-20T03:48:58;26.90;99.90
20803;DHT22;10562;-33.856;151.182;2022-12-20T03:51:28;27.10;99.90
20803;DHT22;10562;-33.856;151.182;2022-12-20T03:53:59;27.10;99.90
20803;DHT22;10562;-33.856;151.182;2022-12-20T03:56:30;27.50;99.90
20803;DHT22;10562;-33.856;151.182;2022-12-20T03:59:01;27.30;99.90
20803;DHT22;10562;-33.856;151.182;2022-12-20T04:01:34;27.40;99.90
20803;DHT22;10562;-33.856;151.182;2022-12-20T04:04:06;27.30;99.90
20803;DHT22;10562;-33.856;151.182;2022-12-20T04:06:39;27.80;99.90
20803;DHT22;10562;-33.856;151.182;2022-12-20T04:09:10;27.30;99.90
20803;DHT22;10562;-33.856;151.182;2022-12-20T04:11:41;27.60;99.90
20803;DHT22;10562;-33.856;151.182;2022-12-20T04:14:12;27.60;99.90
20803;DHT22;10562;-33.856;151.182;2022-12-20T04:16:45;27.70;99.90
20803;DHT22;10562;-33.856;151.182;2022-12-20T04:19:16;27.60;99.90
20803;DHT22;10562;-33.856;151.182;2022-12-20T04:21:47;27.60;99.90
20803;DHT22;10562;-33.856;151.182;2022-12-20T04:24:18;27.80;99.90
20803;DHT22;10562;-33.856;151.182;2022-12-20T04:26:48;27.70;99.90
20803;DHT22;10562;-33.856;151.182;2022-12-20T04:29:19;27.20;99.90
20803;DHT22;10562;-33.856;151.182;2022-12-20T04:31:52;26.80;99.90
20803;DHT22;10562;-33.856;151.182;2022-12-20T04:34:23;26.70;99.90
20803;DHT22;10562;-33.856;151.182;2022-12-20T04:36:54;26.90;99.90
20803;DHT22;10562;-33.856;151.182;2022-12-20T04:39:25;26.40;99.90
20803;DHT22;10562;-33.856;151.182;2022-12-20T04:41:56;26.90;99.90
20803;DHT22;10562;-33.856;151.182;2022-12-20T04:44:26;27.00;99.90
20803;DHT22;10562;-33.856;151.182;2022-12-20T04:46:59;27.40;99.90
20803;DHT22;10562;-33.856;151.182;2022-12-20T04:49:30;27.80;99.90
20803;DHT22;10562;-33.856;151.182;2022-12-20T04:52:01;28.30;99.90
20803;DHT22;10562;-33.856;151.182;2022-12-20T04:54:44;28.20;99.90
20803;DHT22;10562;-33.856;151.182;2022-12-20T04:57:15;28.70;99.90
20803;DHT22;10562;-33.856;151.182;2022-12-20T04:59:46;28.90;99.90
20803;DHT22;10562;-33.856;151.182;2022-12-20T05:02:19;28.70;99.90
20803;DHT22;10562;-33.856;151.182;2022-12-20T05:04:53;29.00;99.90
20803;DHT22;10562;-33.856;151.182;2022-12-20T05:07:24;28.60;99.90
20803;DHT22;10562;-33.856;151.182;2022-12-20T05:09:54;28.00;99.90
20803;DHT22;10562;-33.856;151.182;2022-12-20T05:12:25;27.60;99.90
20803;DHT22;10562;-33.856;151.182;2022-12-20T05:14:56;27.30;99.90
20803;DHT22;10562;-33.856;151.182;2022-12-20T05:17:29;27.60;99.90
20803;DHT22;10562;-33.856;151.182;2022-12-20T05:20:00;27.30;99.90
20803;DHT22;10562;-33.856;151.182;2022-12-20T05:22:31;27.20;99.90
20803;DHT22;10562;-33.856;151.182;2022-12-20T05:25:18;26.80;99.90
20803;DHT22;10562;-33.856;151.182;2022-12-20T05:28:05;26.50;99.90
20803;DHT22;10562;-33.856;151.182;2022-12-20T05:30:36;26.50;99.90
20803;DHT22;10562;-33.856;151.182;2022-12-20T05:33:09;26.20;99.90
20803;DHT22;10562;-33.856;151.182;2022-12-20T05:35:40;26.60;99.90
20803;DHT22;10562;-33.856;151.182;2022-12-20T05:38:10;26.60;99.90
20803;DHT22;10562;-33.856;151.182;2022-12-20T05:40:41;26.20;99.90
20803;DHT22;10562;-33.856;151.182;2022-12-20T05:43:12;26.40;99.90
20803;DHT22;10562;-33.856;151.182;2022-12-20T05:45:46;25.70;99.90
20803;DHT22;10562;-33.856;151.182;2022-12-20T05:48:20;26.00;99.90
20803;DHT22;10562;-33.856;151.182;2022-12-20T05:50:50;26.10;99.90
20803;DHT22;10562;-33.856;151.182;2022-12-20T05:53:21;25.80;99.90
20803;DHT22;10562;-33.856;151.182;2022-12-20T05:55:53;25.90;99.90
20803;DHT22;10562;-33.856;151.182;2022-12-20T05:58:24;25.60;99.90
20803;DHT22;10562;-33.856;151.182;2022-12-20T06:00:55;24.90;99.90
20803;DHT22;10562;-33.856;151.182;2022-12-20T06:03:28;24.40;99.90
20803;DHT22;10562;-33.856;151.182;2022-12-20T06:05:59;23.60;99.90
20803;DHT22;10562;-33.856;151.182;2022-12-20T06:08:30;23.40;99.90
20803;DHT22;10562;-33.856;151.182;2022-12-20T06:11:01;23.10;99.90
20803;DHT22;10562;-33.856;151.182;2022-12-20T06:13:33;22.60;99.90
20803;DHT22;10562;-33.856;151.182;2022-12-20T06:16:05;22.40;99.90
20803;DHT22;10562;-33.856;151.182;2022-12-20T06:18:38;22.00;99.90
20803;DHT22;10562;-33.856;151.182;2022-12-20T06:21:08;21.70;99.90
20803;DHT22;10562;-33.856;151.182;2022-12-20T06:23:40;21.60;99.90
20803;DHT22;10562;-33.856;151.182;2022-12-20T06:26:11;21.50;99.90
20803;DHT22;10562;-33.856;151.182;2022-12-20T06:28:42;21.40;99.90
20803;DHT22;10562;-33.856;151.182;2022-12-20T06:31:13;21.20;99.90
20803;DHT22;10562;-33.856;151.182;2022-12-20T06:33:46;21.30;99.90
20803;DHT22;10562;-33.856;151.182;2022-12-20T06:36:17;21.20;99.90
20803;DHT22;10562;-33.856;151.182;2022-12-20T06:38:48;21.00;99.90
20803;DHT22;10562;-33.856;151.182;2022-12-20T06:41:19;20.80;99.90
20803;DHT22;10562;-33.856;151.182;2022-12-20T06:43:50;20.60;99.90
20803;DHT22;10562;-33.856;151.182;2022-12-20T06:46:21;20.70;99.90
20803;DHT22;10562;-33.856;151.182;2022-12-20T06:48:56;20.80;99.90
20803;DHT22;10562;-33.856;151.182;2022-12-20T06:51:27;20.80;99.90
20803;DHT22;10562;-33.856;151.182;2022-12-20T06:53:57;20.90;99.90
20803;DHT22;10562;-33.856;151.182;2022-12-20T06:56:28;21.30;99.90
20803;DHT22;10562;-33.856;151.182;2022-12-20T06:58:59;21.40;99.90
20803;DHT22;10562;-33.856;151.182;2022-12-20T07:01:33;21.30;99.90
20803;DHT22;10562;-33.856;151.182;2022-12-20T07:04:06;21.10;99.90
20803;DHT22;10562;-33.856;151.182;2022-12-20T07:06:37;20.90;99.90
20803;DHT22;10562;-33.856;151.182;2022-12-20T07:09:07;20.70;99.90
20803;DHT22;10562;-33.856;151.182;2022-12-20T07:11:39;20.60;99.90
20803;DHT22;10562;-33.856;151.182;2022-12-20T07:14:11;20.40;99.90
20803;DHT22;10562;-33.856;151.182;2022-12-20T07:16:42;20.30;99.90
20803;DHT22;10562;-33.856;151.182;2022-12-20T07:19:15;20.40;99.90
20803;DHT22;10562;-33.856;151.182;2022-12-20T07:21:47;20.30;99.90
20803;DHT22;10562;-33.856;151.182;2022-12-20T07:24:18;20.20;99.90
20803;DHT22;10562;-33.856;151.182;2022-12-20T07:26:49;20.10;99.90
20803;DHT22;10562;-33.856;151.182;2022-12-20T07:29:20;20.00;99.90
20803;DHT22;10562;-33.856;151.182;2022-12-20T07:31:51;19.90;99.90
20803;DHT22;10562;-33.856;151.182;2022-12-20T07:34:24;19.90;99.90
20803;DHT22;10562;-33.856;151.182;2022-12-20T07:36:55;19.90;99.90
20803;DHT22;10562;-33.856;151.182;2022-12-20T07:39:26;19.80;99.90
20803;DHT22;10562;-33.856;151.182;2022-12-20T07:41:57;19.80;99.90
20803;DHT22;10562;-33.856;151.182;2022-12-20T07:44:28;19.70;99.90
20803;DHT22;10562;-33.856;151.182;2022-12-20T07:46:59;19.70;99.90
20803;DHT22;10562;-33.856;151.182;2022-12-20T07:49:32;19.60;99.90
20803;DHT22;10562;-33.856;151.182;2022-12-20T07:52:04;19.60;99.90
20803;DHT22;10562;-33.856;151.182;2022-12-20T07:54:37;19.60;99.90
20803;DHT22;10562;-33.856;151.182;2022-12-20T07:57:12;19.50;99.90
20803;DHT22;10562;-33.856;151.182;2022-12-20T07:59:47;19.50;99.90
20803;DHT22;10562;-33.856;151.182;2022-12-20T08:02:22;19.40;99.90
20803;DHT22;10562;-33.856;151.182;2022-12-20T08:04:57;19.30;99.90
20803;DHT22;10562;-33.856;151.182;2022-12-20T08:07:29;19.30;99.90
20803;DHT22;10562;-33.856;151.182;2022-12-20T08:10:00;19.20;99.90
20803;DHT22;10562;-33.856;151.182;2022-12-20T08:12:31;19.10;99.90
20803;DHT22;10562;-33.856;151.182;2022-12-20T08:15:03;19.20;99.90
20803;DHT22;10562;-33.856;151.182;2022-12-20T08:17:34;19.40;99.90
20803;DHT22;10562;-33.856;151.182;2022-12-20T08:20:07;19.30;99.90
20803;DHT22;10562;-33.856;151.182;2022-12-20T08:22:38;19.40;99.90
20803;DHT22;10562;-33.856;151.182;2022-12-20T08:25:09;19.60;99.90
20803;DHT22;10562;-33.856;151.182;2022-12-20T08:27:40;19.50;99.90
20803;DHT22;10562;-33.856;151.182;2022-12-20T08:30:12;19.30;99.90
20803;DHT22;10562;-33.856;151.182;2022-12-20T08:32:43;19.20;99.90
20803;DHT22;10562;-33.856;151.182;2022-12-20T08:35:16;19.10;99.90
20803;DHT22;10562;-33.856;151.182;2022-12-20T08:37:47;19.00;99.90
20803;DHT22;10562;-33.856;151.182;2022-12-20T08:40:18;18.90;99.90
20803;DHT22;10562;-33.856;151.182;2022-12-20T08:42:49;18.70;99.90
20803;DHT22;10562;-33.856;151.182;2022-12-20T08:45:20;18.70;99.90
20803;DHT22;10562;-33.856;151.182;2022-12-20T08:47:52;18.70;99.90
20803;DHT22;10562;-33.856;151.182;2022-12-20T08:50:24;18.50;99.90
20803;DHT22;10562;-33.856;151.182;2022-12-20T08:52:56;18.40;99.90
20803;DHT22;10562;-33.856;151.182;2022-12-20T08:55:27;18.30;99.90
20803;DHT22;10562;-33.856;151.182;2022-12-20T08:57:58;18.20;99.90
20803;DHT22;10562;-33.856;151.182;2022-12-20T09:00:29;18.20;99.90
20803;DHT22;10562;-33.856;151.182;2022-12-20T09:03:00;18.10;99.90
20803;DHT22;10562;-33.856;151.182;2022-12-20T09:05:33;18.00;99.90
20803;DHT22;10562;-33.856;151.182;2022-12-20T09:08:05;18.00;99.90
20803;DHT22;10562;-33.856;151.182;2022-12-20T09:10:36;18.00;99.90
20803;DHT22;10562;-33.856;151.182;2022-12-20T09:13:07;17.90;99.90
20803;DHT22;10562;-33.856;151.182;2022-12-20T09:15:38;17.90;99.90
20803;DHT22;10562;-33.856;151.182;2022-12-20T09:18:09;17.80;99.90
20803;DHT22;10562;-33.856;151.182;2022-12-20T09:20:44;17.80;99.90
20803;DHT22;10562;-33.856;151.182;2022-12-20T09:23:15;17.80;99.90
20803;DHT22;10562;-33.856;151.182;2022-12-20T09:25:46;17.80;99.90
20803;DHT22;10562;-33.856;151.182;2022-12-20T09:28:20;17.80;99.90
20803;DHT22;10562;-33.856;151.182;2022-12-20T09:30:58;17.80;99.90
20803;DHT22;10562;-33.856;151.182;2022-12-20T09:33:29;17.70;99.90
20803;DHT22;10562;-33.856;151.182;2022-12-20T09:36:03;17.60;99.90
20803;DHT22;10562;-33.856;151.182;2022-12-20T09:38:34;17.60;99.90
20803;DHT22;10562;-33.856;151.182;2022-12-20T09:41:06;17.60;99.90
20803;DHT22;10562;-33.856;151.182;2022-12-20T09:43:38;17.60;99.90
20803;DHT22;10562;-33.856;151.182;2022-12-20T09:46:11;17.40;99.90
20803;DHT22;10562;-33.856;151.182;2022-12-20T09:48:43;17.40;99.90
20803;DHT22;10562;-33.856;151.182;2022-12-20T09:51:24;17.40;99.90
20803;DHT22;10562;-33.856;151.182;2022-12-20T09:54:05;17.40;99.90
20803;DHT22;10562;-33.856;151.182;2022-12-20T09:56:42;17.30;99.90
20803;DHT22;10562;-33.856;151.182;2022-12-20T09:59:16;17.30;99.90
20803;DHT22;10562;-33.856;151.182;2022-12-20T10:01:49;17.30;99.90
20803;DHT22;10562;-33.856;151.182;2022-12-20T10:04:23;17.30;99.90
20803;DHT22;10562;-33.856;151.182;2022-12-20T10:07:06;17.30;99.90
20803;DHT22;10562;-33.856;151.182;2022-12-20T10:10:01;17.30;99.90
20803;DHT22;10562;-33.856;151.182;2022-12-20T10:12:41;17.20;99.90
20803;DHT22;10562;-33.856;151.182;2022-12-20T10:15:19;17.30;99.90
20803;DHT22;10562;-33.856;151.182;2022-12-20T10:18:02;17.20;99.90
20803;DHT22;10562;-33.856;151.182;2022-12-20T10:20:50;17.10;99.90
20803;DHT22;10562;-33.856;151.182;2022-12-20T10:23:29;17.10;99.90
20803;DHT22;10562;-33.856;151.182;2022-12-20T10:26:04;17.00;99.90
20803;DHT22;10562;-33.856;151.182;2022-12-20T10:28:40;16.90;99.90
20803;DHT22;10562;-33.856;151.182;2022-12-20T10:31:13;16.80;99.90
20803;DHT22;10562;-33.856;151.182;2022-12-20T10:33:45;16.70;99.90
20803;DHT22;10562;-33.856;151.182;2022-12-20T10:36:20;16.60;99.90
20803;DHT22;10562;-33.856;151.182;2022-12-20T10:38:55;16.60;99.90
20803;DHT22;10562;-33.856;151.182;2022-12-20T10:41:27;16.50;99.90
20803;DHT22;10562;-33.856;151.182;2022-12-20T10:44:01;16.50;99.90
20803;DHT22;10562;-33.856;151.182;2022-12-20T10:46:38;16.50;99.90
20803;DHT22;10562;-33.856;151.182;2022-12-20T10:49:28;16.50;99.90
20803;DHT22;10562;-33.856;151.182;2022-12-20T10:52:03;16.40;99.90
20803;DHT22;10562;-33.856;151.182;2022-12-20T10:54:42;16.30;99.90
20803;DHT22;10562;-33.856;151.182;2022-12-20T10:57:22;16.40;99.90
20803;DHT22;10562;-33.856;151.182;2022-12-20T10:59:55;16.50;99.90
20803;DHT22;10562;-33.856;151.182;2022-12-20T11:02:28;16.40;99.90
20803;DHT22;10562;-33.856;151.182;2022-12-20T11:05:00;16.30;99.90
20803;DHT22;10562;-33.856;151.182;2022-12-20T11:07:33;16.20;99.90
20803;DHT22;10562;-33.856;151.182;2022-12-20T11:10:20;16.10;99.90
20803;DHT22;10562;-33.856;151.182;2022-12-20T11:12:55;16.00;99.90
20803;DHT22;10562;-33.856;151.182;2022-12-20T11:15:27;16.10;99.90
20803;DHT22;10562;-33.856;151.182;2022-12-20T11:18:00;16.10;99.90
20803;DHT22;10562;-33.856;151.182;2022-12-20T11:20:40;16.10;99.90
20803;DHT22;10562;-33.856;151.182;2022-12-20T11:23:22;16.00;99.90
20803;DHT22;10562;-33.856;151.182;2022-12-20T11:26:09;15.90;99.90
20803;DHT22;10562;-33.856;151.182;2022-12-20T11:28:56;15.90;99.90
20803;DHT22;10562;-33.856;151.182;2022-12-20T11:31:41;16.00;99.90
20803;DHT22;10562;-33.856;151.182;2022-12-20T11:34:21;16.00;99.90
20803;DHT22;10562;-33.856;151.182;2022-12-20T11:37:12;16.00;99.90
20803;DHT22;10562;-33.856;151.182;2022-12-20T11:39:58;16.00;99.90
20803;DHT22;10562;-33.856;151.182;2022-12-20T11:42:37;16.00;99.90
20803;DHT22;10562;-33.856;151.182;2022-12-20T11:45:18;16.00;99.90
20803;DHT22;10562;-33.856;151.182;2022-12-20T11:48:06;16.20;99.90
20803;DHT22;10562;-33.856;151.182;2022-12-20T11:50:50;16.30;99.90
20803;DHT22;10562;-33.856;151.182;2022-12-20T11:53:31;16.50;99.90
20803;DHT22;10562;-33.856;151.182;2022-12-20T11:56:07;16.60;99.90
20803;DHT22;10562;-33.856;151.182;2022-12-20T11:58:48;16.60;99.90
20803;DHT22;10562;-33.856;151.182;2022-12-20T12:01:23;16.60;99.90
20803;DHT22;10562;-33.856;151.182;2022-12-20T12:04:03;16.60;99.90
20803;DHT22;10562;-33.856;151.182;2022-12-20T12:06:41;16.60;99.90
20803;DHT22;10562;-33.856;151.182;2022-12-20T12:09:19;16.60;99.90
20803;DHT22;10562;-33.856;151.182;2022-12-20T12:11:54;16.60;99.90
20803;DHT22;10562;-33.856;151.182;2022-12-20T12:14:44;16.70;99.90
20803;DHT22;10562;-33.856;151.182;2022-12-20T12:17:24;16.70;99.90
20803;DHT22;10562;-33.856;151.182;2022-12-20T12:20:01;16.70;99.90
20803;DHT22;10562;-33.856;151.182;2022-12-20T12:22:38;16.70;99.90
20803;DHT22;10562;-33.856;151.182;2022-12-20T12:25:13;16.70;99.90
20803;DHT22;10562;-33.856;151.182;2022-12-20T12:27:45;16.70;99.90
20803;DHT22;10562;-33.856;151.182;2022-12-20T12:30:18;16.80;99.90
20803;DHT22;10562;-33.856;151.182;2022-12-20T12:32:52;16.80;99.90
20803;DHT22;10562;-33.856;151.182;2022-12-20T12:35:52;16.90;99.90
20803;DHT22;10562;-33.856;151.182;2022-12-20T12:39:09;17.00;99.90
20803;DHT22;10562;-33.856;151.182;2022-12-20T12:42:10;17.10;99.90
20803;DHT22;10562;-33.856;151.182;2022-12-20T12:44:49;17.10;99.90
20803;DHT22;10562;-33.856;151.182;2022-12-20T12:47:29;17.10;99.90
20803;DHT22;10562;-33.856;151.182;2022-12-20T12:50:06;17.10;99.90
20803;DHT22;10562;-33.856;151.182;2022-12-20T12:52:44;17.10;99.90
20803;DHT22;10562;-33.856;151.182;2022-12-20T12:55:43;17.10;99.90
20803;DHT22;10562;-33.856;151.182;2022-12-20T12:58:38;17.10;99.90
20803;DHT22;10562;-33.856;151.182;2022-12-20T13:01:10;17.10;99.90
20803;DHT22;10562;-33.856;151.182;2022-12-20T13:04:07;17.10;99.90
20803;DHT22;10562;-33.856;151.182;2022-12-20T13:07:00;17.20;99.90
20803;DHT22;10562;-33.856;151.182;2022-12-20T13:09:39;17.20;99.90
20803;DHT22;10562;-33.856;151.182;2022-12-20T13:15:49;17.20;99.90
20803;DHT22;10562;-33.856;151.182;2022-12-20T13:18:24;17.30;99.90
20803;DHT22;10562;-33.856;151.182;2022-12-20T13:27:34;17.20;99.90
20803;DHT22;10562;-33.856;151.182;2022-12-20T13:30:27;17.20;99.90
20803;DHT22;10562;-33.856;151.182;2022-12-20T13:33:20;17.20;99.90
20803;DHT22;10562;-33.856;151.182;2022-12-20T13:36:03;17.20;99.90
20803;DHT22;10562;-33.856;151.182;2022-12-20T13:38:51;17.20;99.90
20803;DHT22;10562;-33.856;151.182;2022-12-20T13:41:40;17.10;99.90
20803;DHT22;10562;-33.856;151.182;2022-12-20T13:50:30;16.90;99.90
20803;DHT22;10562;-33.856;151.182;2022-12-20T13:53:02;16.90;99.90
20803;DHT22;10562;-33.856;151.182;2022-12-20T13:55:36;16.90;99.90
20803;DHT22;10562;-33.856;151.182;2022-12-20T13:58:15;16.90;99.90
20803;DHT22;10562;-33.856;151.182;2022-12-20T14:00:48;16.90;99.90
20803;DHT22;10562;-33.856;151.182;2022-12-20T14:03:24;16.80;99.90
20803;DHT22;10562;-33.856;151.182;2022-12-20T14:05:57;16.70;99.90
20803;DHT22;10562;-33.856;151.182;2022-12-20T14:08:30;16.60;99.90
20803;DHT22;10562;-33.856;151.182;2022-12-20T14:11:10;16.60;99.90
20803;DHT22;10562;-33.856;151.182;2022-12-20T14:13:41;16.50;99.90
20803;DHT22;10562;-33.856;151.182;2022-12-20T14:16:17;16.50;99.90
20803;DHT22;10562;-33.856;151.182;2022-12-20T14:18:53;16.40;99.90
20803;DHT22;10562;-33.856;151.182;2022-12-20T14:21:30;16.40;99.90
20803;DHT22;10562;-33.856;151.182;2022-12-20T14:24:01;16.30;99.90
20803;DHT22;10562;-33.856;151.182;2022-12-20T14:26:37;16.20;99.90
20803;DHT22;10562;-33.856;151.182;2022-12-20T14:29:11;16.20;99.90
20803;DHT22;10562;-33.856;151.182;2022-12-20T14:31:47;16.10;99.90
20803;DHT22;10562;-33.856;151.182;2022-12-20T14:34:21;16.10;99.90
20803;DHT22;10562;-33.856;151.182;2022-12-20T14:37:23;16.10;99.90
20803;DHT22;10562;-33.856;151.182;2022-12-20T14:39:56;16.10;99.90
20803;DHT22;10562;-33.856;151.182;2022-12-20T14:42:32;16.00;99.90
20803;DHT22;10562;-33.856;151.182;2022-12-20T14:45:06;16.00;99.90
20803;DHT22;10562;-33.856;151.182;2022-12-20T14:47:58;15.90;99.90
20803;DHT22;10562;-33.856;151.182;2022-12-20T14:50:32;15.90;99.90
20803;DHT22;10562;-33.856;151.182;2022-12-20T14:53:10;15.90;99.90
20803;DHT22;10562;-33.856;151.182;2022-12-20T14:55:45;15.90;99.90
20803;DHT22;10562;-33.856;151.182;2022-12-20T14:58:24;15.90;99.90
20803;DHT22;10562;-33.856;151.182;2022-12-20T15:00:58;16.00;99.90
20803;DHT22;10562;-33.856;151.182;2022-12-20T15:03:31;15.90;99.90
20803;DHT22;10562;-33.856;151.182;2022-12-20T15:06:01;16.00;99.90
20803;DHT22;10562;-33.856;151.182;2022-12-20T15:08:32;15.90;99.90
20803;DHT22;10562;-33.856;151.182;2022-12-20T15:11:14;15.80;99.90
20803;DHT22;10562;-33.856;151.182;2022-12-20T15:13:47;15.80;99.90
20803;DHT22;10562;-33.856;151.182;2022-12-20T15:16:22;15.70;99.90
20803;DHT22;10562;-33.856;151.182;2022-12-20T15:18:56;15.60;99.90
20803;DHT22;10562;-33.856;151.182;2022-12-20T15:21:30;15.50;99.90
20803;DHT22;10562;-33.856;151.182;2022-12-20T15:24:04;15.60;99.90
20803;DHT22;10562;-33.856;151.182;2022-12-20T15:26:36;15.70;99.90
20803;DHT22;10562;-33.856;151.182;2022-12-20T15:29:09;15.70;99.90
20803;DHT22;10562;-33.856;151.182;2022-12-20T15:31:47;15.70;99.90
20803;DHT22;10562;-33.856;151.182;2022-12-20T15:34:26;15.80;99.90
20803;DHT22;10562;-33.856;151.182;2022-12-20T15:36:58;15.80;99.90
20803;DHT22;10562;-33.856;151.182;2022-12-20T15:39:29;15.80;99.90
20803;DHT22;10562;-33.856;151.182;2022-12-20T15:42:02;15.70;99.90
20803;DHT22;10562;-33.856;151.182;2022-12-20T15:44:33;15.70;99.90
20803;DHT22;10562;-33.856;151.182;2022-12-20T15:47:08;15.80;99.90
20803;DHT22;10562;-33.856;151.182;2022-12-20T15:49:41;15.80;99.90
20803;DHT22;10562;-33.856;151.182;2022-12-20T15:52:19;15.80;99.90
20803;DHT22;10562;-33.856;151.182;2022-12-20T15:54:50;15.80;99.90